Time;durP1;ratioP1;P1;durP2;ratioP2;P2;SDS_P1;SDS_P2;PMS_P1;PMS_P2;Temp;Humidity;BMP_temperature;BMP_pressure;BME280_temperature;BME280_humidity;BME280_pressure;Samples;Min_cycle;Max_cycle;Signal;HPM_P1;HPM_P2
2022/08/19 00:01:50;;;;;;;14.70;8.10;;;25.20;99.90;;;;;;4958454;28;21084;-81
2022/08/19 00:04:27;;;;;;;10.73;9.03;;;25.20;99.90;;;;;;4969701;28;20472;-83
2022/08/19 00:06:55;;;;;;;8.60;7.80;;;25.20;99.90;;;;;;4957899;29;20431;-83
2022/08/19 00:09:23;;;;;;;9.53;8.73;;;25.20;99.90;;;;;;4966717;28;20465;-82
2022/08/19 00:11:52;;;;;;;11.10;9.70;;;25.20;99.90;;;;;;4957539;29;20772;-83
2022/08/19 00:14:20;;;;;;;7.87;7.20;;;25.30;99.90;;;;;;4961767;28;20596;-86
2022/08/19 00:16:49;;;;;;;8.57;7.70;;;25.10;99.90;;;;;;4959179;29;20442;-78
2022/08/19 00:19:16;;;;;;;10.23;9.33;;;25.00;99.90;;;;;;4953059;28;20442;-87
2022/08/19 00:21:43;;;;;;;8.63;7.70;;;24.90;99.90;;;;;;4949590;29;20466;-85
2022/08/19 00:24:12;;;;;;;8.90;8.13;;;25.00;99.90;;;;;;4962045;28;20521;-84
2022/08/19 00:26:40;;;;;;;9.90;9.03;;;24.80;99.90;;;;;;4987106;28;20443;-81
2022/08/19 00:29:10;;;;;;;8.80;8.00;;;24.70;99.90;;;;;;4980721;28;20407;-82
2022/08/19 00:31:37;;;;;;;9.20;8.30;;;24.60;99.90;;;;;;4970408;28;20422;-81
2022/08/19 00:34:04;;;;;;;9.47;8.67;;;24.50;99.90;;;;;;4956541;28;20448;-80
2022/08/19 00:36:32;;;;;;;10.37;9.40;;;24.30;99.90;;;;;;4962877;28;20448;-83
2022/08/19 00:39:05;;;;;;;9.30;8.40;;;24.20;99.90;;;;;;4957598;29;20409;-84
2022/08/19 00:41:33;;;;;;;10.20;9.10;;;24.10;99.90;;;;;;4965714;28;20438;-82
2022/08/19 00:44:19;;;;;;;9.67;8.60;;;24.20;99.90;;;;;;4959377;28;20424;-83
2022/08/19 00:46:55;;;;;;;9.40;8.40;;;24.10;99.90;;;;;;4960384;28;20757;-88
2022/08/19 00:49:51;;;;;;;9.43;8.63;;;24.10;99.90;;;;;;4966534;28;20616;-83
2022/08/19 00:52:28;;;;;;;9.43;8.40;;;24.20;99.90;;;;;;4966470;28;20632;-83
2022/08/19 00:54:57;;;;;;;8.63;7.83;;;24.30;99.90;;;;;;4951104;29;20751;-82
2022/08/19 00:57:32;;;;;;;9.17;8.43;;;24.30;99.90;;;;;;4964408;28;20768;-83
2022/08/19 01:00:00;;;;;;;8.77;8.03;;;24.30;99.90;;;;;;4953504;29;20487;-81
2022/08/19 01:02:30;;;;;;;8.83;7.97;;;24.10;99.90;;;;;;4959731;28;20806;-78
2022/08/19 01:05:00;;;;;;;8.60;7.83;;;23.80;99.90;;;;;;4961503;28;20466;-78
2022/08/19 01:07:27;;;;;;;9.33;8.43;;;23.80;99.90;;;;;;4956662;28;20533;-84
2022/08/19 01:10:06;;;;;;;10.10;9.30;;;23.60;99.90;;;;;;4964030;28;20482;-80
2022/08/19 01:12:38;;;;;;;9.80;8.90;;;23.60;99.90;;;;;;4960863;28;20443;-85
2022/08/19 01:15:08;;;;;;;10.63;9.37;;;23.70;99.90;;;;;;4957967;28;20494;-83
2022/08/19 01:17:37;;;;;;;10.53;9.50;;;23.80;99.90;;;;;;4960654;28;20445;-82
2022/08/19 01:20:14;;;;;;;9.33;8.47;;;23.90;99.90;;;;;;4969057;28;20430;-83
2022/08/19 01:22:48;;;;;;;10.17;9.13;;;23.80;99.90;;;;;;4958697;28;20419;-81
2022/08/19 01:25:20;;;;;;;12.07;9.80;;;23.70;99.90;;;;;;4965446;28;20628;-80
2022/08/19 01:27:52;;;;;;;10.57;8.30;;;23.70;99.90;;;;;;4965581;28;20479;-82
2022/08/19 01:30:32;;;;;;;9.37;8.47;;;23.70;99.90;;;;;;4951824;28;20510;-77
2022/08/19 01:33:00;;;;;;;9.50;8.23;;;23.80;99.90;;;;;;4952609;29;20442;-78
2022/08/19 01:35:29;;;;;;;8.60;7.80;;;23.70;99.90;;;;;;4963827;28;20562;-82
2022/08/19 01:38:00;;;;;;;12.00;8.47;;;23.70;99.90;;;;;;4967540;28;20558;-81
2022/08/19 01:40:31;;;;;;;9.67;8.70;;;23.70;99.90;;;;;;4968080;28;20415;-79
2022/08/19 01:42:59;;;;;;;13.00;8.90;;;23.70;99.90;;;;;;4969351;28;20444;-77
2022/08/19 01:45:29;;;;;;;9.70;8.83;;;23.70;99.90;;;;;;4966669;28;20439;-78
2022/08/19 01:47:57;;;;;;;9.60;8.70;;;23.80;99.90;;;;;;4960414;28;20420;-82
2022/08/19 01:50:30;;;;;;;9.53;8.57;;;23.70;99.90;;;;;;4957137;28;20870;-84
2022/08/19 01:52:57;;;;;;;15.57;10.30;;;23.80;99.90;;;;;;4958481;29;20452;-84
2022/08/19 01:55:29;;;;;;;8.20;7.50;;;23.80;99.90;;;;;;4959251;29;20524;-84
2022/08/19 01:58:01;;;;;;;7.80;7.10;;;23.80;99.90;;;;;;4963267;28;20445;-80
2022/08/19 02:00:31;;;;;;;11.70;8.93;;;23.70;99.90;;;;;;4960148;28;20428;-78
2022/08/19 02:02:58;;;;;;;8.93;8.10;;;23.60;99.90;;;;;;4973023;28;20447;-83
2022/08/19 02:05:28;;;;;;;9.40;8.50;;;23.60;99.90;;;;;;4963167;28;20416;-84
2022/08/19 02:07:56;;;;;;;10.13;9.23;;;23.50;99.90;;;;;;4970610;28;20612;-81
2022/08/19 02:10:24;;;;;;;10.40;9.30;;;23.50;99.90;;;;;;4972250;28;20490;-86
2022/08/19 02:12:53;;;;;;;9.83;8.80;;;23.50;99.90;;;;;;4969296;28;20463;-78
2022/08/19 02:15:21;;;;;;;9.67;8.77;;;23.30;99.90;;;;;;4955800;29;20838;-87
2022/08/19 02:17:48;;;;;;;9.33;8.43;;;23.30;99.90;;;;;;4958237;28;20521;-82
2022/08/19 02:20:16;;;;;;;10.60;9.53;;;23.30;99.90;;;;;;4964834;28;20991;-80
2022/08/19 02:22:44;;;;;;;9.00;8.13;;;23.20;99.90;;;;;;4954185;28;20425;-84
2022/08/19 02:25:14;;;;;;;10.07;9.13;;;23.20;99.90;;;;;;4964814;28;20416;-80
2022/08/19 02:27:42;;;;;;;8.83;8.00;;;23.10;99.90;;;;;;4959942;28;20820;-79
2022/08/19 02:30:15;;;;;;;10.67;9.23;;;23.10;99.90;;;;;;4959275;28;20447;-82
2022/08/19 02:32:42;;;;;;;10.40;9.23;;;23.00;99.90;;;;;;4954227;28;20544;-84
2022/08/19 02:35:13;;;;;;;9.90;8.90;;;22.90;99.90;;;;;;4966609;28;20451;-86
2022/08/19 02:40:29;;;;;;;10.73;9.63;;;22.80;99.90;;;;;;4965404;28;20755;-84
2022/08/19 02:42:56;;;;;;;10.77;9.43;;;22.80;99.90;;;;;;4957631;28;20415;-82
2022/08/19 02:45:23;;;;;;;9.33;8.53;;;22.80;99.90;;;;;;4964054;28;20425;-81
2022/08/19 02:47:51;;;;;;;9.30;8.40;;;22.90;99.90;;;;;;4959441;28;20424;-78
2022/08/19 02:50:18;;;;;;;10.07;9.10;;;22.80;99.90;;;;;;4955205;28;20481;-83
2022/08/19 02:52:48;;;;;;;10.30;9.30;;;22.80;99.90;;;;;;4968454;28;20449;-80
2022/08/19 02:55:15;;;;;;;10.40;9.37;;;22.70;99.90;;;;;;4963627;28;20452;-81
2022/08/19 02:57:43;;;;;;;11.93;10.77;;;22.70;99.90;;;;;;4958707;28;20480;-82
2022/08/19 03:00:13;;;;;;;9.80;8.80;;;22.60;99.90;;;;;;4963203;28;20454;-83
2022/08/19 03:02:40;;;;;;;10.00;9.10;;;22.60;99.90;;;;;;4958916;28;20488;-81
2022/08/19 03:05:09;;;;;;;10.47;9.17;;;22.70;99.90;;;;;;4972086;28;20459;-84
2022/08/19 03:07:37;;;;;;;11.00;10.00;;;22.70;99.90;;;;;;4953072;28;20462;-79
2022/08/19 03:10:05;;;;;;;13.87;11.50;;;22.60;99.90;;;;;;4965402;28;20679;-78
2022/08/19 03:12:36;;;;;;;9.70;8.40;;;22.50;99.90;;;;;;4959881;28;20484;-81
2022/08/19 03:15:07;;;;;;;12.50;10.57;;;22.60;99.90;;;;;;4962781;28;21006;-78
2022/08/19 03:17:34;;;;;;;11.47;9.37;;;22.60;99.90;;;;;;4955496;28;20736;-85
2022/08/19 03:20:03;;;;;;;12.57;11.37;;;22.60;99.90;;;;;;4956197;28;20449;-83
2022/08/19 03:22:30;;;;;;;12.17;10.70;;;22.60;99.90;;;;;;4951832;28;20417;-86
2022/08/19 03:24:58;;;;;;;10.00;9.00;;;22.50;99.90;;;;;;4955211;28;20504;-85
2022/08/19 03:27:25;;;;;;;11.10;9.50;;;22.40;99.90;;;;;;4960544;29;20855;-85
2022/08/19 03:30:00;;;;;;;10.33;9.33;;;22.40;99.90;;;;;;4959467;28;20453;-84
2022/08/19 03:32:27;;;;;;;11.97;10.47;;;22.40;99.90;;;;;;4964436;28;20503;-82
2022/08/19 03:35:00;;;;;;;12.90;11.47;;;22.40;99.90;;;;;;4955283;28;20416;-84
2022/08/19 03:37:28;;;;;;;14.23;10.67;;;22.30;99.90;;;;;;4959721;29;20477;-84
2022/08/19 03:39:55;;;;;;;11.27;9.73;;;22.20;99.90;;;;;;4971284;29;20451;-83
2022/08/19 03:42:22;;;;;;;14.20;10.37;;;22.30;99.90;;;;;;4973939;28;20470;-83
2022/08/19 03:45:11;;;;;;;12.43;11.10;;;22.20;99.90;;;;;;4961005;28;20576;-84
2022/08/19 03:47:38;;;;;;;12.30;11.20;;;22.20;99.90;;;;;;4965600;28;20426;-82
2022/08/19 03:50:05;;;;;;;17.87;9.70;;;22.10;99.90;;;;;;4985890;28;20420;-83
2022/08/19 03:52:32;;;;;;;12.03;9.60;;;22.10;99.90;;;;;;4961483;28;20419;-83
2022/08/19 03:54:59;;;;;;;12.20;11.00;;;22.10;99.90;;;;;;4950328;28;20479;-81
2022/08/19 03:57:27;;;;;;;11.07;9.97;;;22.10;99.90;;;;;;4958761;28;20424;-82
2022/08/19 03:59:58;;;;;;;11.13;10.13;;;22.20;99.90;;;;;;4946708;28;20680;-83
2022/08/19 04:02:38;;;;;;;11.63;10.53;;;22.20;99.90;;;;;;4956889;29;20428;-84
2022/08/19 04:05:08;;;;;;;10.80;9.70;;;22.10;99.90;;;;;;4948036;28;20424;-84
2022/08/19 04:07:35;;;;;;;12.47;10.83;;;22.20;99.90;;;;;;4956585;28;20424;-87
2022/08/19 04:10:03;;;;;;;12.20;10.33;;;22.20;99.90;;;;;;4953830;28;20431;-87
2022/08/19 04:12:31;;;;;;;12.47;10.97;;;22.10;99.90;;;;;;4959994;28;20446;-83
2022/08/19 04:15:02;;;;;;;13.80;11.30;;;22.10;99.90;;;;;;4960009;28;20405;-81
2022/08/19 04:17:32;;;;;;;12.20;10.90;;;22.20;99.90;;;;;;4951163;28;20436;-83
2022/08/19 04:20:08;;;;;;;11.83;10.63;;;22.30;99.90;;;;;;4948399;29;20750;-82
2022/08/19 04:22:34;;;;;;;12.20;10.97;;;22.30;99.90;;;;;;4959700;29;20452;-80
2022/08/19 04:25:02;;;;;;;12.73;10.67;;;22.40;99.90;;;;;;4963448;28;20448;-85
2022/08/19 04:27:31;;;;;;;14.13;12.77;;;22.40;99.90;;;;;;4964509;28;20429;-80
2022/08/19 04:30:00;;;;;;;14.00;10.40;;;22.60;99.90;;;;;;4954972;29;20441;-82
2022/08/19 04:32:26;;;;;;;12.10;10.30;;;22.60;99.90;;;;;;4953122;29;20450;-82
2022/08/19 04:34:58;;;;;;;14.00;12.70;;;22.80;99.90;;;;;;4951071;29;20454;-81
2022/08/19 04:37:42;;;;;;;12.10;10.77;;;22.90;99.90;;;;;;4962875;28;20425;-84
2022/08/19 04:43:00;;;;;;;12.40;11.23;;;22.80;99.90;;;;;;4960003;28;20501;-80
2022/08/19 04:45:27;;;;;;;13.60;11.80;;;22.90;99.90;;;;;;4959826;29;20463;-80
2022/08/19 04:48:05;;;;;;;13.30;11.93;;;23.00;99.90;;;;;;4963056;28;20430;-86
2022/08/19 04:50:57;;;;;;;14.17;12.73;;;23.20;99.90;;;;;;4964480;28;20447;-85
2022/08/19 04:53:32;;;;;;;14.47;12.43;;;23.20;99.90;;;;;;4972279;28;20684;-85
2022/08/19 04:56:09;;;;;;;13.13;10.90;;;23.30;99.90;;;;;;4959128;28;20415;-84
2022/08/19 04:58:38;;;;;;;17.20;11.17;;;23.50;99.90;;;;;;4956844;28;20416;-85
2022/08/19 05:01:05;;;;;;;12.90;11.60;;;23.70;99.90;;;;;;4955257;28;20420;-82
2022/08/19 05:03:34;;;;;;;15.57;12.10;;;23.60;99.90;;;;;;4956157;28;20449;-84
2022/08/19 05:06:10;;;;;;;11.70;10.60;;;23.60;99.90;;;;;;4952768;29;20559;-84
2022/08/19 05:08:43;;;;;;;12.33;11.10;;;23.70;99.90;;;;;;4958425;28;20471;-84
2022/08/19 05:11:19;;;;;;;13.00;11.63;;;23.50;99.90;;;;;;4957628;28;20481;-83
2022/08/19 05:13:52;;;;;;;17.30;13.40;;;23.70;99.90;;;;;;4949912;29;20419;-84
2022/08/19 05:16:21;;;;;;;15.67;12.73;;;23.80;99.90;;;;;;4952557;28;20426;-82
2022/08/19 05:24:23;;;;;;;13.10;11.97;;;23.80;99.90;;;;;;4958739;28;20427;-85
2022/08/19 05:26:56;;;;;;;14.10;12.23;;;23.90;99.90;;;;;;4958058;28;20476;-81
2022/08/19 05:29:26;;;;;;;23.07;12.97;;;24.00;99.90;;;;;;4963058;28;20528;-82
2022/08/19 05:31:59;;;;;;;14.20;12.10;;;24.00;99.90;;;;;;4965635;28;20442;-84
2022/08/19 05:34:29;;;;;;;21.47;13.10;;;24.00;99.90;;;;;;4970780;28;20554;-83
2022/08/19 05:37:00;;;;;;;14.33;11.60;;;24.10;99.90;;;;;;4959987;28;20428;-84
2022/08/19 05:39:30;;;;;;;13.90;12.60;;;24.20;99.90;;;;;;4978284;28;20415;-82
2022/08/19 05:42:03;;;;;;;13.23;11.93;;;24.30;99.90;;;;;;4970579;28;20500;-83
2022/08/19 05:44:32;;;;;;;21.23;12.50;;;24.30;99.90;;;;;;4957219;28;20447;-81
2022/08/19 05:47:01;;;;;;;13.87;12.47;;;24.40;99.90;;;;;;4959924;28;20424;-84
2022/08/19 05:49:29;;;;;;;14.77;13.37;;;24.50;99.90;;;;;;4975051;28;20437;-83
2022/08/19 05:51:56;;;;;;;21.30;15.00;;;24.60;99.90;;;;;;4973409;28;20452;-84
2022/08/19 05:54:23;;;;;;;13.40;12.10;;;24.80;99.90;;;;;;4965872;28;20404;-83
2022/08/19 05:56:52;;;;;;;14.60;13.40;;;24.90;99.90;;;;;;4965974;28;20443;-82
2022/08/19 05:59:21;;;;;;;15.30;13.73;;;25.10;99.90;;;;;;4966423;28;20446;-85
2022/08/19 06:01:56;;;;;;;16.10;14.10;;;25.10;99.90;;;;;;4959116;28;20541;-84
2022/08/19 06:04:24;;;;;;;15.47;12.20;;;25.30;99.90;;;;;;4958913;28;20719;-85
2022/08/19 06:06:53;;;;;;;14.00;12.70;;;25.60;99.90;;;;;;4962039;28;20461;-83
2022/08/19 06:09:21;;;;;;;14.40;13.10;;;25.70;99.90;;;;;;4961255;28;20451;-83
2022/08/19 06:11:59;;;;;;;13.73;12.37;;;25.70;99.90;;;;;;4950730;28;20535;-84
2022/08/19 06:14:33;;;;;;;14.70;11.63;;;25.70;99.90;;;;;;4961776;28;20459;-84
2022/08/19 06:17:05;;;;;;;13.93;12.53;;;25.80;99.90;;;;;;4958873;28;20503;-83
2022/08/19 06:19:33;;;;;;;12.13;10.73;;;26.00;99.90;;;;;;4956766;29;20439;-84
2022/08/19 06:22:07;;;;;;;13.13;11.93;;;26.20;99.90;;;;;;4955042;28;20545;-84
2022/08/19 06:24:35;;;;;;;13.93;12.60;;;26.40;99.90;;;;;;4957724;29;20459;-83
2022/08/19 06:27:05;;;;;;;14.13;12.50;;;26.90;99.90;;;;;;4936131;28;20447;-84
2022/08/19 06:29:33;;;;;;;15.87;12.67;;;27.10;99.90;;;;;;4967042;28;20767;-83
2022/08/19 06:32:02;;;;;;;11.33;10.33;;;27.40;99.90;;;;;;4955176;28;20457;-83
2022/08/19 06:34:32;;;;;;;13.60;11.70;;;27.80;99.90;;;;;;4965906;28;20487;-83
2022/08/19 06:37:02;;;;;;;17.90;12.43;;;28.10;99.90;;;;;;4965978;28;20449;-82
2022/08/19 06:39:39;;;;;;;12.57;11.37;;;28.30;99.90;;;;;;4963128;28;20437;-83
2022/08/19 06:42:09;;;;;;;13.07;11.77;;;28.90;99.90;;;;;;4959419;28;20435;-83
2022/08/19 06:44:38;;;;;;;12.20;11.10;;;29.40;99.90;;;;;;4956129;29;20452;-85
2022/08/19 06:47:11;;;;;;;12.00;10.90;;;30.00;99.90;;;;;;4959706;28;20477;-83
2022/08/19 06:49:48;;;;;;;11.97;10.53;;;30.40;99.90;;;;;;4957015;28;20499;-82
2022/08/19 06:52:15;;;;;;;12.40;11.20;;;30.80;99.90;;;;;;4944155;29;20516;-82
2022/08/19 06:54:42;;;;;;;10.87;9.87;;;31.10;99.90;;;;;;4965254;28;20612;-83
2022/08/19 06:57:24;;;;;;;10.67;9.27;;;31.50;99.90;;;;;;4962295;28;20629;-82
2022/08/19 06:59:51;;;;;;;12.70;9.90;;;31.90;99.90;;;;;;4958274;28;20539;-82
2022/08/19 07:02:20;;;;;;;10.87;9.83;;;32.20;99.90;;;;;;4956768;28;20568;-84
2022/08/19 07:04:47;;;;;;;10.47;9.47;;;32.40;99.90;;;;;;4952322;28;20449;-83
2022/08/19 07:07:20;;;;;;;9.07;8.27;;;33.60;99.90;;;;;;4955404;28;20505;-81
2022/08/19 07:09:48;;;;;;;12.10;9.73;;;35.20;99.90;;;;;;4958419;29;20491;-81
2022/08/19 07:12:24;;;;;;;10.70;9.07;;;35.70;99.90;;;;;;4958375;28;20877;-82
2022/08/19 07:14:52;;;;;;;11.17;10.00;;;36.10;99.90;;;;;;4955111;28;20505;-81
2022/08/19 07:17:20;;;;;;;10.10;9.20;;;37.10;99.90;;;;;;4954483;28;20555;-81
2022/08/19 07:19:47;;;;;;;8.80;8.10;;;37.80;99.90;;;;;;4954590;28;20488;-81
2022/08/19 07:22:14;;;;;;;10.90;8.80;;;38.50;98.70;;;;;;4957095;28;20456;-82
2022/08/19 07:24:43;;;;;;;9.20;8.10;;;39.70;97.30;;;;;;4958324;29;20445;-82
2022/08/19 07:27:18;;;;;;;8.40;7.60;;;40.40;94.20;;;;;;4963443;28;20506;-82
2022/08/19 07:29:50;;;;;;;8.33;7.63;;;40.40;93.80;;;;;;4949398;29;20450;-83
2022/08/19 07:32:26;;;;;;;8.73;7.83;;;41.10;91.00;;;;;;4957417;28;20500;-83
2022/08/19 07:34:54;;;;;;;15.83;9.33;;;41.30;90.00;;;;;;4949479;29;20772;-82
2022/08/19 07:37:23;;;;;;;10.27;7.60;;;41.70;85.80;;;;;;4967131;28;20455;-82
2022/08/19 07:39:53;;;;;;;9.40;7.80;;;42.70;80.80;;;;;;4970751;28;20430;-83
2022/08/19 07:42:20;;;;;;;8.43;7.37;;;42.70;78.40;;;;;;4978377;28;20441;-82
2022/08/19 07:44:48;;;;;;;7.87;7.07;;;42.70;77.30;;;;;;4960691;28;20453;-82
2022/08/19 07:47:17;;;;;;;7.40;6.90;;;43.00;75.60;;;;;;4958980;28;20445;-82
2022/08/19 07:50:07;;;;;;;8.20;7.40;;;43.90;72.70;;;;;;4966476;28;20607;-83
2022/08/19 07:52:36;;;;;;;7.73;6.70;;;44.40;69.30;;;;;;4962245;28;20502;-81
2022/08/19 07:55:04;;;;;;;13.77;7.47;;;44.20;68.40;;;;;;4963803;28;20473;-81
2022/08/19 07:57:31;;;;;;;8.03;6.83;;;43.50;68.30;;;;;;4960291;28;20456;-81
2022/08/19 07:59:58;;;;;;;9.40;7.70;;;42.90;68.00;;;;;;4969534;28;20536;-81
2022/08/19 08:02:25;;;;;;;9.53;6.57;;;42.80;68.10;;;;;;4971769;28;20457;-81
2022/08/19 08:10:25;;;;;;;7.37;6.87;;;42.90;65.60;;;;;;4957268;28;20465;-80
2022/08/19 08:12:55;;;;;;;6.57;6.07;;;42.00;67.70;;;;;;4962597;28;20548;-82
2022/08/19 08:15:38;;;;;;;7.97;7.13;;;41.20;69.20;;;;;;4969439;28;20444;-82
2022/08/19 08:18:10;;;;;;;8.90;8.20;;;41.00;70.40;;;;;;4976829;28;20469;-83
2022/08/19 08:20:37;;;;;;;7.47;6.87;;;39.30;74.10;;;;;;4967194;28;20551;-82
2022/08/19 08:23:22;;;;;;;7.77;7.07;;;38.60;76.70;;;;;;4969607;28;20512;-82
2022/08/19 08:25:49;;;;;;;9.70;7.47;;;37.40;79.50;;;;;;4948495;28;20449;-82
2022/08/19 08:28:17;;;;;;;7.60;7.00;;;39.10;77.50;;;;;;4956421;28;20441;-82
2022/08/19 08:30:47;;;;;;;9.47;7.83;;;41.20;71.40;;;;;;4968018;28;20815;-83
2022/08/19 08:33:21;;;;;;;9.67;6.87;;;41.30;70.10;;;;;;4946151;29;20545;-83
2022/08/19 08:36:00;;;;;;;7.03;6.43;;;41.30;68.20;;;;;;4943277;29;20509;-82
2022/08/19 08:38:31;;;;;;;6.60;6.00;;;42.10;66.30;;;;;;4968863;28;20527;-82
2022/08/19 08:41:19;;;;;;;9.60;7.83;;;41.20;68.10;;;;;;4964034;28;20440;-83
2022/08/19 08:43:51;;;;;;;8.27;6.87;;;40.00;71.40;;;;;;4956496;28;20780;-82
2022/08/19 08:46:39;;;;;;;7.10;6.50;;;40.00;71.50;;;;;;4969322;28;20449;-82
2022/08/19 08:49:28;;;;;;;8.03;7.33;;;40.70;70.20;;;;;;4960130;28;20529;-82
2022/08/19 08:52:02;;;;;;;8.30;7.60;;;42.40;66.60;;;;;;4965708;28;20469;-83
2022/08/19 08:54:42;;;;;;;9.57;7.33;;;44.00;62.10;;;;;;4950855;28;20455;-82
2022/08/19 08:57:54;;;;;;;9.43;7.17;;;44.00;61.60;;;;;;4966368;28;20512;-82
2022/08/19 09:00:27;;;;;;;7.57;6.87;;;44.30;60.80;;;;;;4946315;29;20650;-82
2022/08/19 09:02:57;;;;;;;8.50;7.70;;;44.60;58.70;;;;;;4958629;29;20449;-82
2022/08/19 09:05:37;;;;;;;7.70;7.10;;;44.80;59.00;;;;;;4960468;28;20451;-84
2022/08/19 09:08:27;;;;;;;8.07;6.40;;;44.80;58.70;;;;;;4970005;28;20449;-82
2022/08/19 09:10:57;;;;;;;7.93;7.20;;;44.20;59.00;;;;;;4974003;28;20491;-82
2022/08/19 09:14:01;;;;;;;8.93;5.80;;;44.20;59.00;;;;;;4962625;28;20487;-83
2022/08/19 09:16:29;;;;;;;7.10;6.40;;;44.70;58.30;;;;;;4967957;28;20436;-83
2022/08/19 09:19:02;;;;;;;7.10;6.50;;;44.50;58.00;;;;;;4970297;28;20444;-83
2022/08/19 09:21:32;;;;;;;7.10;6.40;;;44.70;57.70;;;;;;4968771;28;20432;-82
2022/08/19 09:24:00;;;;;;;10.10;6.80;;;45.40;55.90;;;;;;4973812;28;20796;-83
2022/08/19 09:26:30;;;;;;;7.60;6.90;;;45.90;55.30;;;;;;4956440;28;20461;-83
2022/08/19 09:29:16;;;;;;;6.40;5.90;;;44.60;55.90;;;;;;4959029;28;20445;-81
2022/08/19 09:31:43;;;;;;;6.40;5.80;;;43.40;57.20;;;;;;4958891;28;20490;-82
2022/08/19 09:34:10;;;;;;;7.40;6.80;;;41.60;60.30;;;;;;4962993;28;20464;-82
2022/08/19 09:36:52;;;;;;;7.30;6.60;;;40.20;62.60;;;;;;4973572;28;20556;-83
2022/08/19 09:39:19;;;;;;;9.40;6.10;;;38.20;66.50;;;;;;4961859;28;20745;-82
2022/08/19 09:41:46;;;;;;;5.27;4.87;;;37.50;68.70;;;;;;4956185;28;20460;-82
2022/08/19 09:44:15;;;;;;;8.50;7.70;;;36.70;70.50;;;;;;4955314;29;20441;-83
2022/08/19 09:46:43;;;;;;;7.57;6.67;;;36.40;72.50;;;;;;4957303;28;20512;-82
2022/08/19 09:49:10;;;;;;;7.50;6.63;;;35.60;73.80;;;;;;4960201;28;20501;-82
2022/08/19 09:51:39;;;;;;;7.93;6.47;;;35.20;75.20;;;;;;4964092;28;20827;-82
2022/08/19 09:54:06;;;;;;;9.23;6.30;;;35.00;77.70;;;;;;4951335;29;20449;-82
2022/08/19 09:56:36;;;;;;;6.43;5.80;;;34.90;78.00;;;;;;4958315;28;20457;-83
2022/08/19 09:59:03;;;;;;;8.23;6.13;;;35.00;79.90;;;;;;4959868;28;20512;-81
2022/08/19 10:01:32;;;;;;;6.90;6.30;;;35.10;79.10;;;;;;4970904;28;20468;-82
2022/08/19 10:04:01;;;;;;;6.40;5.90;;;35.10;80.80;;;;;;4951011;29;20450;-83
2022/08/19 10:06:42;;;;;;;6.30;5.80;;;35.00;78.00;;;;;;4959327;28;20445;-82
2022/08/19 10:09:13;;;;;;;6.90;6.03;;;34.90;79.00;;;;;;4960469;28;20455;-84
2022/08/19 10:11:42;;;;;;;7.40;6.80;;;34.90;79.70;;;;;;4957500;28;20763;-81
2022/08/19 10:14:22;;;;;;;7.60;6.40;;;34.50;80.30;;;;;;4954547;29;20441;-82
2022/08/19 10:16:50;;;;;;;8.67;7.87;;;34.40;82.80;;;;;;4960114;29;20594;-81
2022/08/19 10:19:21;;;;;;;7.20;6.67;;;34.30;83.80;;;;;;4956530;28;20833;-83
2022/08/19 10:21:52;;;;;;;8.17;6.30;;;34.30;82.50;;;;;;4957530;28;20508;-82
2022/08/19 10:24:20;;;;;;;8.30;6.50;;;34.20;83.40;;;;;;4953290;28;20488;-81
2022/08/19 10:26:48;;;;;;;10.10;6.60;;;34.10;82.70;;;;;;4960027;28;20521;-81
2022/08/19 10:29:27;;;;;;;6.80;6.10;;;34.00;82.50;;;;;;4960753;28;20768;-81
2022/08/19 10:32:07;;;;;;;5.70;5.20;;;34.00;85.20;;;;;;4964518;28;20488;-81
2022/08/19 10:34:39;;;;;;;21.63;6.60;;;34.00;83.00;;;;;;4956951;28;20837;-82
2022/08/19 10:37:17;;;;;;;6.10;5.70;;;34.00;82.60;;;;;;4963817;28;20445;-83
2022/08/19 10:39:55;;;;;;;5.37;4.97;;;34.30;82.50;;;;;;4959775;28;20798;-81
2022/08/19 10:42:22;;;;;;;5.90;5.40;;;34.90;81.40;;;;;;4960123;28;20608;-81
2022/08/19 10:44:49;;;;;;;5.87;5.37;;;35.20;79.80;;;;;;4957252;28;20760;-80
2022/08/19 10:47:18;;;;;;;6.30;5.70;;;35.70;78.10;;;;;;4975366;28;20459;-80
2022/08/19 10:52:40;;;;;;;7.00;5.30;;;35.60;80.90;;;;;;4957975;28;20569;-81
2022/08/19 10:58:12;;;;;;;7.20;6.50;;;34.80;79.70;;;;;;4942870;28;20446;-81
2022/08/19 11:00:40;;;;;;;7.60;5.87;;;35.10;80.80;;;;;;4957119;28;20481;-81
2022/08/19 11:03:07;;;;;;;6.40;4.97;;;35.00;80.50;;;;;;4958824;28;20438;-81
2022/08/19 11:05:37;;;;;;;7.20;5.80;;;35.00;80.90;;;;;;4943786;29;20459;-82
2022/08/19 11:08:11;;;;;;;5.60;5.20;;;35.00;82.40;;;;;;4954687;29;20455;-81
2022/08/19 11:10:49;;;;;;;6.20;5.70;;;34.90;81.70;;;;;;4973854;28;20500;-81
2022/08/19 11:13:16;;;;;;;5.90;5.17;;;34.80;80.80;;;;;;4981250;28;20480;-83
2022/08/19 11:15:47;;;;;;;9.17;5.90;;;34.50;82.50;;;;;;4975316;28;20731;-80
2022/08/19 11:18:14;;;;;;;6.47;5.77;;;34.30;83.00;;;;;;4975096;28;20505;-83
2022/08/19 11:20:41;;;;;;;6.40;5.00;;;34.40;85.20;;;;;;4960171;28;20452;-82
2022/08/19 11:23:08;;;;;;;11.47;5.53;;;34.50;83.30;;;;;;4956399;29;20509;-81
2022/08/19 11:25:38;;;;;;;5.30;4.80;;;34.60;84.40;;;;;;4973407;28;20512;-82
2022/08/19 11:28:05;;;;;;;6.27;5.77;;;34.60;84.80;;;;;;4967281;28;20449;-82
2022/08/19 11:30:33;;;;;;;6.97;5.27;;;34.60;83.40;;;;;;4960571;28;20444;-80
2022/08/19 11:33:00;;;;;;;5.20;4.70;;;34.70;83.70;;;;;;4978066;28;20540;-81
2022/08/19 11:35:27;;;;;;;5.00;4.50;;;35.00;81.50;;;;;;4968285;28;20540;-80
2022/08/19 11:38:01;;;;;;;5.10;4.70;;;35.10;82.50;;;;;;4967235;28;20468;-81
2022/08/19 11:40:28;;;;;;;7.20;4.50;;;35.10;81.80;;;;;;4966302;28;20908;-81
2022/08/19 11:42:55;;;;;;;4.33;3.93;;;35.20;81.40;;;;;;4964875;28;20471;-81
2022/08/19 11:45:25;;;;;;;3.57;3.37;;;35.20;78.50;;;;;;4966603;28;20444;-82
2022/08/19 11:47:53;;;;;;;5.73;4.77;;;35.20;78.20;;;;;;4967259;28;20449;-81
2022/08/19 11:50:20;;;;;;;6.10;3.70;;;35.30;76.30;;;;;;4970018;28;20445;-82
2022/08/19 11:52:49;;;;;;;4.00;3.70;;;35.40;76.20;;;;;;4967906;28;20487;-82
2022/08/19 11:55:16;;;;;;;5.63;3.80;;;35.60;75.60;;;;;;4970380;28;20684;-81
2022/08/19 11:57:43;;;;;;;3.90;3.50;;;35.60;77.00;;;;;;4970601;28;20489;-80
2022/08/19 12:00:12;;;;;;;7.20;4.20;;;35.70;73.60;;;;;;4965163;28;20460;-82
2022/08/19 12:02:40;;;;;;;4.03;3.73;;;35.80;73.60;;;;;;4949898;28;20437;-81
2022/08/19 12:05:07;;;;;;;8.30;3.80;;;35.90;73.20;;;;;;4958382;28;20449;-81
2022/08/19 12:07:41;;;;;;;5.20;4.70;;;36.00;75.00;;;;;;4963800;28;20433;-81
2022/08/19 12:10:08;;;;;;;3.90;3.60;;;35.90;74.90;;;;;;4969352;28;20512;-81
2022/08/19 12:12:42;;;;;;;4.43;4.00;;;35.50;73.30;;;;;;4970710;28;20838;-82
2022/08/19 12:15:10;;;;;;;4.80;3.50;;;35.50;75.60;;;;;;4966408;28;20452;-81
2022/08/19 12:17:37;;;;;;;3.77;3.40;;;35.30;75.90;;;;;;4953914;28;20691;-81
2022/08/19 12:20:06;;;;;;;5.63;3.33;;;35.20;76.20;;;;;;4958176;28;20467;-81
2022/08/19 12:22:33;;;;;;;4.07;3.77;;;35.00;74.90;;;;;;4958896;28;20511;-81
2022/08/19 12:25:00;;;;;;;3.87;3.57;;;35.10;78.60;;;;;;4959627;28;20442;-83
2022/08/19 12:27:27;;;;;;;4.67;4.17;;;34.80;81.40;;;;;;4957715;28;20438;-82
2022/08/19 12:30:09;;;;;;;6.03;4.20;;;34.80;83.00;;;;;;4968157;28;20447;-81
2022/08/19 12:32:37;;;;;;;5.10;4.50;;;34.80;82.80;;;;;;4966431;28;20511;-81
2022/08/19 12:35:06;;;;;;;4.00;3.70;;;34.90;82.70;;;;;;4974675;28;20543;-81
2022/08/19 12:37:33;;;;;;;10.73;4.70;;;35.00;83.60;;;;;;4973530;28;20452;-80
2022/08/19 12:40:02;;;;;;;4.33;4.03;;;34.90;82.90;;;;;;4961189;28;20460;-80
2022/08/19 12:42:30;;;;;;;6.17;4.30;;;34.70;83.40;;;;;;4934873;29;20445;-80
2022/08/19 12:44:57;;;;;;;5.60;4.60;;;34.70;82.70;;;;;;4954237;28;20597;-81
2022/08/19 12:47:26;;;;;;;4.90;4.50;;;34.70;83.00;;;;;;4952592;28;20521;-81
2022/08/19 12:49:54;;;;;;;6.17;3.70;;;34.70;83.70;;;;;;4954521;28;20450;-80
2022/08/19 12:52:26;;;;;;;2.80;2.60;;;34.70;78.60;;;;;;4944369;28;20544;-80
2022/08/19 12:54:56;;;;;;;3.80;3.40;;;34.90;76.90;;;;;;4957393;28;20449;-81
2022/08/19 12:57:25;;;;;;;4.07;3.77;;;35.00;75.90;;;;;;4953687;28;20446;-81
2022/08/19 13:00:00;;;;;;;6.63;3.80;;;35.00;74.60;;;;;;4957304;28;20460;-81
2022/08/19 13:02:26;;;;;;;3.57;3.30;;;34.80;74.60;;;;;;4966518;28;20456;-81
2022/08/19 13:04:53;;;;;;;4.50;3.80;;;35.00;75.10;;;;;;4954268;28;20563;-81
2022/08/19 13:07:21;;;;;;;6.23;4.37;;;34.90;75.00;;;;;;4961731;28;20459;-81
2022/08/19 13:09:51;;;;;;;5.50;4.23;;;34.80;74.20;;;;;;4944382;29;20637;-83
2022/08/19 13:12:20;;;;;;;4.27;3.87;;;34.60;76.20;;;;;;4963233;28;20437;-80
2022/08/19 13:14:50;;;;;;;5.57;4.33;;;34.60;75.60;;;;;;4953712;29;20454;-80
2022/08/19 13:17:20;;;;;;;4.17;3.20;;;34.60;74.80;;;;;;4951185;29;20449;-82
2022/08/19 13:19:47;;;;;;;4.60;3.70;;;34.70;75.40;;;;;;4959056;28;20636;-83
2022/08/19 13:22:15;;;;;;;5.23;3.37;;;34.80;76.00;;;;;;4959963;28;20510;-81